Time;durP1;ratioP1;P1;durP2;ratioP2;P2;SDS_P1;SDS_P2;PMS_P1;PMS_P2;Temp;Humidity;BMP_temperature;BMP_pressure;BME280_temperature;BME280_humidity;BME280_pressure;Samples;Min_cycle;Max_cycle;Signal;HPM_P1;HPM_P2
2023/02/17 00:00:12;;;;;;;17.58;11.10;;;6.00;91.30;;;;;;4998587;28;20054;-65
2023/02/17 00:02:39;;;;;;;17.88;10.38;;;6.10;91.40;;;;;;4976882;28;20065;-66
2023/02/17 00:05:07;;;;;;;17.05;10.27;;;6.10;91.50;;;;;;4983217;28;20054;-66
2023/02/17 00:07:39;;;;;;;17.25;10.15;;;6.10;91.80;;;;;;4992410;28;20038;-65
2023/02/17 00:10:08;;;;;;;16.60;10.43;;;6.10;91.90;;;;;;4991699;28;20065;-66
2023/02/17 00:12:36;;;;;;;19.65;10.10;;;6.10;92.00;;;;;;4989272;28;20068;-66
2023/02/17 00:15:03;;;;;;;16.90;10.32;;;6.20;92.30;;;;;;4968306;28;20108;-64
2023/02/17 00:17:37;;;;;;;17.55;9.95;;;6.20;92.20;;;;;;5019485;28;20142;-65
2023/02/17 00:20:05;;;;;;;18.58;10.32;;;6.20;92.50;;;;;;4983224;28;20394;-65
2023/02/17 00:22:32;;;;;;;19.95;10.75;;;6.20;92.60;;;;;;4986451;28;20050;-66
2023/02/17 00:24:58;;;;;;;16.77;10.75;;;6.20;92.60;;;;;;4984630;28;20047;-65
2023/02/17 00:27:25;;;;;;;17.10;10.27;;;6.30;92.80;;;;;;4987691;28;20043;-66
2023/02/17 00:29:53;;;;;;;17.20;10.38;;;6.30;93.10;;;;;;4989878;28;20061;-65
2023/02/17 00:32:20;;;;;;;16.00;10.43;;;6.30;93.10;;;;;;4981295;28;20058;-66
2023/02/17 00:34:51;;;;;;;15.70;9.75;;;6.30;92.90;;;;;;4987805;28;20070;-65
2023/02/17 00:37:18;;;;;;;18.63;10.98;;;6.30;93.20;;;;;;4990836;28;20060;-67
2023/02/17 00:39:45;;;;;;;15.25;10.23;;;6.30;93.20;;;;;;4977526;28;20420;-66
2023/02/17 00:42:12;;;;;;;15.93;10.05;;;6.40;93.40;;;;;;4991185;28;20049;-65
2023/02/17 00:44:39;;;;;;;15.52;10.43;;;6.40;93.40;;;;;;4980954;28;20046;-66
2023/02/17 00:47:07;;;;;;;18.02;10.45;;;6.40;93.50;;;;;;4995211;28;20066;-66
2023/02/17 00:49:34;;;;;;;16.83;9.98;;;6.40;93.50;;;;;;4989083;28;20125;-66
2023/02/17 00:52:01;;;;;;;17.33;10.23;;;6.40;93.60;;;;;;4987474;28;20053;-66
2023/02/17 00:54:28;;;;;;;15.77;9.63;;;6.40;93.60;;;;;;4980095;28;20043;-67
2023/02/17 00:56:58;;;;;;;18.10;10.20;;;6.40;93.60;;;;;;4988031;28;20041;-68
2023/02/17 00:59:25;;;;;;;17.88;9.90;;;6.50;93.60;;;;;;4984592;28;21211;-67
2023/02/17 01:01:53;;;;;;;15.40;9.57;;;6.50;93.60;;;;;;4986808;28;20045;-67
2023/02/17 01:04:21;;;;;;;15.02;9.43;;;6.50;93.60;;;;;;4997737;28;20042;-68
2023/02/17 01:06:48;;;;;;;17.58;10.82;;;6.50;93.50;;;;;;4981429;28;20116;-67
2023/02/17 01:09:15;;;;;;;17.02;10.95;;;6.50;93.60;;;;;;4981967;28;20061;-68
2023/02/17 01:11:42;;;;;;;16.70;10.13;;;6.50;93.40;;;;;;4991901;28;20416;-66
2023/02/17 01:14:13;;;;;;;17.70;10.00;;;6.50;93.30;;;;;;4989226;28;20046;-67
2023/02/17 01:16:43;;;;;;;16.55;9.27;;;6.50;93.40;;;;;;4989067;28;20056;-66
2023/02/17 01:19:19;;;;;;;15.98;9.50;;;6.50;93.30;;;;;;4991576;28;20051;-65
2023/02/17 01:21:49;;;;;;;16.67;9.65;;;6.60;93.40;;;;;;4985480;28;20058;-65
2023/02/17 01:24:16;;;;;;;14.70;9.45;;;6.60;93.40;;;;;;4980129;28;20042;-65
2023/02/17 01:26:43;;;;;;;19.05;9.43;;;6.60;93.40;;;;;;4977845;28;20050;-67
2023/02/17 01:29:10;;;;;;;16.40;9.60;;;6.60;93.30;;;;;;4986420;28;20131;-66
2023/02/17 01:31:37;;;;;;;18.55;10.52;;;6.50;93.20;;;;;;4982283;28;20046;-67
2023/02/17 01:34:04;;;;;;;18.38;10.68;;;6.60;93.30;;;;;;4987625;28;20047;-66
2023/02/17 01:36:32;;;;;;;16.88;10.45;;;6.60;93.30;;;;;;4998434;28;20057;-65
2023/02/17 01:39:00;;;;;;;16.67;10.35;;;6.60;93.30;;;;;;4984007;28;20049;-65
2023/02/17 01:41:29;;;;;;;17.15;11.18;;;6.60;93.30;;;;;;4980015;28;20065;-66
2023/02/17 01:44:12;;;;;;;17.45;10.52;;;6.60;93.30;;;;;;4973048;28;20043;-67
2023/02/17 01:46:41;;;;;;;16.85;10.20;;;6.60;93.40;;;;;;4987052;28;20054;-66
2023/02/17 01:49:17;;;;;;;20.02;10.77;;;6.60;93.30;;;;;;5001354;28;20074;-66
2023/02/17 01:51:46;;;;;;;18.75;10.30;;;6.60;93.40;;;;;;4988184;28;20058;-65
2023/02/17 01:54:22;;;;;;;17.40;10.52;;;6.60;93.40;;;;;;4993969;28;20058;-65
2023/02/17 01:56:50;;;;;;;14.93;9.88;;;6.60;93.40;;;;;;5004325;28;20050;-67
2023/02/17 01:59:20;;;;;;;16.00;9.90;;;6.60;93.40;;;;;;4975651;28;20054;-68
2023/02/17 02:01:52;;;;;;;17.58;9.93;;;6.60;93.30;;;;;;4973310;28;20128;-65
2023/02/17 02:04:22;;;;;;;16.63;10.02;;;6.60;93.40;;;;;;4984660;28;20966;-64
2023/02/17 02:06:49;;;;;;;18.33;10.63;;;6.60;93.30;;;;;;4974922;28;20046;-65
2023/02/17 02:09:21;;;;;;;17.35;9.88;;;6.60;93.30;;;;;;4999026;28;20507;-66
2023/02/17 02:11:49;;;;;;;16.70;10.60;;;6.60;93.30;;;;;;4993809;28;20043;-65
2023/02/17 02:14:18;;;;;;;18.13;10.43;;;6.60;93.30;;;;;;4988405;28;20129;-66
2023/02/17 02:16:51;;;;;;;16.70;10.43;;;6.70;93.30;;;;;;4986852;28;20054;-63
2023/02/17 02:19:39;;;;;;;15.02;9.68;;;6.70;93.30;;;;;;4980894;28;20514;-66
2023/02/17 02:22:31;;;;;;;16.30;10.48;;;6.70;93.30;;;;;;4988541;28;20050;-65
2023/02/17 02:25:12;;;;;;;16.50;10.52;;;6.70;93.30;;;;;;4985541;28;20057;-66
2023/02/17 02:27:50;;;;;;;15.98;10.80;;;6.70;93.40;;;;;;4987758;28;20141;-65
2023/02/17 02:30:41;;;;;;;15.25;9.43;;;6.70;93.30;;;;;;4981238;28;20142;-66
2023/02/17 02:33:22;;;;;;;14.73;9.50;;;6.70;93.40;;;;;;4985536;28;20135;-65
2023/02/17 02:35:57;;;;;;;15.63;9.90;;;6.70;93.30;;;;;;4983720;28;20497;-65
2023/02/17 02:38:28;;;;;;;15.60;9.68;;;6.70;93.30;;;;;;4997677;28;20492;-66
2023/02/17 02:41:00;;;;;;;14.50;9.30;;;6.70;93.20;;;;;;4987228;28;20512;-66
2023/02/17 02:43:27;;;;;;;14.40;8.57;;;6.70;93.30;;;;;;4986324;28;20054;-64
2023/02/17 02:45:54;;;;;;;16.00;9.40;;;6.70;93.10;;;;;;4992213;28;20046;-66
2023/02/17 02:48:22;;;;;;;14.98;9.45;;;6.70;93.20;;;;;;4990955;28;20508;-66
2023/02/17 02:51:10;;;;;;;14.77;8.60;;;6.80;93.20;;;;;;5006527;28;20064;-65
2023/02/17 02:54:22;;;;;;;15.20;9.23;;;6.70;93.10;;;;;;5002617;28;20070;-67
2023/02/17 02:57:02;;;;;;;15.07;9.18;;;6.70;93.20;;;;;;5034941;28;20104;-64
2023/02/17 02:59:42;;;;;;;16.13;8.95;;;6.80;93.30;;;;;;4974944;28;20496;-66
2023/02/17 03:02:18;;;;;;;16.13;9.50;;;6.80;93.30;;;;;;4985821;28;20057;-64
2023/02/17 03:04:54;;;;;;;15.40;9.15;;;6.80;93.40;;;;;;5045576;28;20071;-65
2023/02/17 03:07:26;;;;;;;16.23;9.18;;;6.80;93.50;;;;;;5068590;28;20059;-66
2023/02/17 03:09:56;;;;;;;16.05;9.20;;;6.80;93.50;;;;;;5069087;28;20045;-67
2023/02/17 03:12:24;;;;;;;16.40;9.13;;;6.90;93.60;;;;;;4991468;28;20074;-66
2023/02/17 03:14:57;;;;;;;14.38;8.82;;;6.90;93.60;;;;;;4987769;28;20132;-64
2023/02/17 03:17:24;;;;;;;;;;;6.90;93.60;;;;;;4991041;28;20051;-65
2023/02/17 03:19:53;;;;;;;13.52;8.45;;;6.90;93.50;;;;;;4954985;28;19940;-64
2023/02/17 03:22:23;;;;;;;15.05;8.48;;;6.90;93.50;;;;;;4979769;28;20058;-67
2023/02/17 03:24:50;;;;;;;15.52;8.93;;;6.90;93.50;;;;;;4987517;28;20133;-65
2023/02/17 03:27:17;;;;;;;12.43;8.35;;;6.90;93.40;;;;;;4990389;28;20074;-65
2023/02/17 03:29:45;;;;;;;14.88;8.93;;;6.90;93.40;;;;;;4987516;28;20050;-66
2023/02/17 03:32:12;;;;;;;14.25;8.38;;;6.90;93.40;;;;;;4982363;28;20077;-60
2023/02/17 03:34:39;;;;;;;16.08;9.13;;;6.90;93.40;;;;;;4997538;28;20046;-58
2023/02/17 03:37:07;;;;;;;15.20;8.27;;;6.90;93.40;;;;;;4981522;28;20050;-57
2023/02/17 03:39:34;;;;;;;13.82;8.60;;;6.90;93.40;;;;;;4988586;28;20054;-58
2023/02/17 03:42:01;;;;;;;15.90;8.85;;;6.90;93.30;;;;;;4982753;28;20058;-58
2023/02/17 03:44:28;;;;;;;14.88;8.05;;;6.90;93.40;;;;;;4988289;28;20520;-57
2023/02/17 03:46:55;;;;;;;13.20;7.93;;;6.90;93.40;;;;;;4994249;28;20496;-59
2023/02/17 03:49:22;;;;;;;13.45;8.65;;;6.90;93.30;;;;;;4979087;28;20591;-58
2023/02/17 03:51:49;;;;;;;13.60;8.43;;;6.90;93.30;;;;;;4992162;28;20046;-58
2023/02/17 03:54:17;;;;;;;13.68;8.05;;;6.90;93.40;;;;;;4995276;28;20058;-61
2023/02/17 03:56:44;;;;;;;14.02;8.20;;;6.90;93.30;;;;;;4987644;28;20084;-58
2023/02/17 03:59:10;;;;;;;13.52;8.05;;;7.00;93.30;;;;;;4988493;28;20515;-58
2023/02/17 04:01:37;;;;;;;14.38;7.72;;;6.90;93.30;;;;;;4981983;28;20069;-59
2023/02/17 04:04:04;;;;;;;14.32;8.45;;;7.00;93.30;;;;;;4989386;28;20416;-59
2023/02/17 04:06:31;;;;;;;14.75;7.95;;;6.90;93.20;;;;;;4980044;28;20061;-58
2023/02/17 04:08:58;;;;;;;12.98;8.27;;;6.90;93.20;;;;;;4994271;28;20053;-59
2023/02/17 04:11:26;;;;;;;13.27;7.90;;;7.00;93.10;;;;;;4981754;28;20050;-58
2023/02/17 04:13:53;;;;;;;12.30;7.55;;;6.90;93.10;;;;;;4981131;28;20042;-58
2023/02/17 04:16:20;;;;;;;12.30;7.88;;;7.00;93.10;;;;;;4988132;28;20054;-58
2023/02/17 04:18:47;;;;;;;12.57;8.20;;;7.00;93.30;;;;;;4987325;28;20051;-59
2023/02/17 04:21:14;;;;;;;12.57;8.13;;;6.90;93.20;;;;;;4973131;28;20058;-62
2023/02/17 04:23:41;;;;;;;14.50;8.23;;;7.00;93.30;;;;;;4989371;28;20056;-59
2023/02/17 04:26:09;;;;;;;13.40;8.10;;;7.00;93.30;;;;;;4984056;28;20054;-59
2023/02/17 04:28:39;;;;;;;13.32;7.68;;;7.00;93.30;;;;;;4988430;28;20054;-59
2023/02/17 04:31:06;;;;;;;12.90;7.82;;;7.00;93.40;;;;;;4981133;28;20157;-59
2023/02/17 04:33:33;;;;;;;15.50;7.95;;;7.00;93.40;;;;;;4985813;28;20491;-58
2023/02/17 04:36:00;;;;;;;12.50;7.68;;;7.00;93.40;;;;;;4987391;28;20050;-58
2023/02/17 04:38:30;;;;;;;11.68;7.63;;;7.00;93.40;;;;;;4989708;28;20042;-57
2023/02/17 04:40:58;;;;;;;12.35;8.15;;;7.00;93.40;;;;;;4987345;28;20065;-59
2023/02/17 04:43:26;;;;;;;12.30;7.95;;;7.00;93.30;;;;;;4975392;28;20046;-58
2023/02/17 04:45:55;;;;;;;13.70;7.82;;;7.10;93.30;;;;;;4971434;28;20055;-58
2023/02/17 04:48:22;;;;;;;14.85;7.65;;;7.10;93.20;;;;;;4981182;28;20057;-58
2023/02/17 04:50:50;;;;;;;12.10;7.45;;;7.10;93.30;;;;;;4988485;28;20065;-59
2023/02/17 04:53:17;;;;;;;14.27;8.07;;;7.00;93.20;;;;;;4976267;28;20952;-58
2023/02/17 04:55:44;;;;;;;11.63;7.18;;;7.10;93.40;;;;;;4990157;28;20579;-58
2023/02/17 04:58:11;;;;;;;12.02;7.28;;;7.00;93.30;;;;;;4980925;28;20054;-59
2023/02/17 05:00:38;;;;;;;15.02;7.50;;;7.10;93.30;;;;;;4985687;28;20043;-59
2023/02/17 05:03:06;;;;;;;13.57;7.32;;;7.10;93.30;;;;;;4974428;28;20413;-58
2023/02/17 05:05:33;;;;;;;12.15;7.28;;;7.10;93.30;;;;;;4969929;28;20066;-58
2023/02/17 05:08:00;;;;;;;13.25;7.93;;;7.10;93.40;;;;;;4987963;28;20062;-58
2023/02/17 05:10:28;;;;;;;14.95;6.63;;;7.10;93.40;;;;;;4984181;28;20042;-58
2023/02/17 05:12:54;;;;;;;10.93;6.85;;;7.20;93.50;;;;;;4981781;28;20041;-58
2023/02/17 05:15:21;;;;;;;11.38;6.55;;;7.20;93.40;;;;;;4979129;28;20050;-59
2023/02/17 05:17:48;;;;;;;12.35;7.50;;;7.20;93.40;;;;;;4986268;28;20488;-59
2023/02/17 05:20:17;;;;;;;13.48;6.57;;;7.20;93.50;;;;;;4987688;28;20054;-65
2023/02/17 05:22:43;;;;;;;13.32;7.20;;;7.20;93.40;;;;;;4985806;28;20057;-59
2023/02/17 05:25:10;;;;;;;13.38;7.25;;;7.20;93.30;;;;;;4970346;28;20535;-57
2023/02/17 05:27:37;;;;;;;11.27;6.55;;;7.20;93.40;;;;;;4984785;28;20042;-59
2023/02/17 05:30:05;;;;;;;13.27;6.68;;;7.20;93.40;;;;;;4990560;28;20050;-59
2023/02/17 05:32:32;;;;;;;11.02;6.75;;;7.20;93.40;;;;;;4989641;28;20518;-59
2023/02/17 05:34:59;;;;;;;10.55;6.68;;;7.20;93.50;;;;;;4981141;28;20488;-58
2023/02/17 05:37:28;;;;;;;12.93;7.40;;;7.20;93.60;;;;;;4987601;28;20418;-58
2023/02/17 05:39:55;;;;;;;11.32;7.32;;;7.20;93.60;;;;;;4978136;28;20386;-58
2023/02/17 05:42:22;;;;;;;12.18;7.57;;;7.30;93.70;;;;;;5020954;28;20056;-58
2023/02/17 05:44:48;;;;;;;16.00;7.22;;;7.30;93.80;;;;;;5050820;28;20090;-58
2023/02/17 05:47:15;;;;;;;10.98;7.00;;;7.30;93.80;;;;;;4983936;28;20447;-59
2023/02/17 05:49:42;;;;;;;10.70;6.72;;;7.40;93.90;;;;;;4984716;28;20042;-58
2023/02/17 05:52:10;;;;;;;11.65;7.50;;;7.40;93.80;;;;;;4969498;28;20054;-58
2023/02/17 05:54:38;;;;;;;14.18;7.25;;;7.30;93.80;;;;;;4987153;28;20047;-58
2023/02/17 05:57:05;;;;;;;13.57;6.97;;;7.40;93.90;;;;;;4982392;28;20051;-58
2023/02/17 05:59:32;;;;;;;14.20;6.20;;;7.40;94.00;;;;;;4956442;28;20050;-57
2023/02/17 06:01:59;;;;;;;8.40;5.75;;;7.40;94.00;;;;;;4980138;28;20034;-58
2023/02/17 06:04:26;;;;;;;12.18;6.15;;;7.40;94.00;;;;;;4976173;28;20054;-59
2023/02/17 06:06:53;;;;;;;8.48;5.65;;;7.50;94.00;;;;;;4985873;28;20043;-57
2023/02/17 06:09:20;;;;;;;10.63;5.85;;;7.50;94.00;;;;;;4978476;28;20071;-59
2023/02/17 06:11:48;;;;;;;9.88;5.78;;;7.50;94.10;;;;;;4990767;28;20053;-59
2023/02/17 06:14:15;;;;;;;10.75;5.88;;;7.50;94.20;;;;;;4963747;28;20055;-58
2023/02/17 06:16:42;;;;;;;11.48;6.43;;;7.50;94.20;;;;;;4960928;28;20496;-59
2023/02/17 06:19:08;;;;;;;11.10;6.28;;;7.50;94.20;;;;;;4986869;28;20121;-57
2023/02/17 06:21:35;;;;;;;11.25;6.30;;;7.50;94.20;;;;;;4977912;28;20081;-58
2023/02/17 06:24:02;;;;;;;10.05;6.05;;;7.50;94.20;;;;;;4985108;28;20046;-57
2023/02/17 06:26:29;;;;;;;9.50;6.03;;;7.50;94.30;;;;;;4986021;28;20047;-58
2023/02/17 06:28:57;;;;;;;11.35;6.53;;;7.60;94.30;;;;;;4984196;28;20034;-59
2023/02/17 06:31:24;;;;;;;10.00;5.38;;;7.60;94.30;;;;;;4988370;28;20455;-59
2023/02/17 06:33:51;;;;;;;12.93;6.38;;;7.60;94.30;;;;;;4982905;28;20046;-58
2023/02/17 06:36:18;;;;;;;9.63;5.55;;;7.60;94.30;;;;;;4989638;28;20531;-59
2023/02/17 06:38:45;;;;;;;9.18;5.80;;;7.60;94.40;;;;;;4972432;28;20057;-58
2023/02/17 06:41:12;;;;;;;10.98;5.32;;;7.70;94.40;;;;;;4977035;28;20119;-58
2023/02/17 06:43:40;;;;;;;8.27;4.78;;;7.70;94.40;;;;;;4985920;28;20393;-58
2023/02/17 06:46:08;;;;;;;11.43;5.25;;;7.70;94.40;;;;;;4981463;28;20066;-59
2023/02/17 06:48:35;;;;;;;9.32;5.28;;;7.70;94.40;;;;;;4972459;28;20553;-57
2023/02/17 06:51:02;;;;;;;9.95;4.78;;;7.70;94.40;;;;;;4985000;28;20511;-58
2023/02/17 06:53:30;;;;;;;10.93;5.43;;;7.80;94.40;;;;;;4991045;28;20082;-58
2023/02/17 06:55:57;;;;;;;10.55;5.20;;;7.80;94.40;;;;;;4973563;28;20053;-59
2023/02/17 06:58:24;;;;;;;8.57;4.63;;;7.80;94.40;;;;;;4986777;28;20043;-58
2023/02/17 07:00:51;;;;;;;10.10;5.40;;;7.80;94.40;;;;;;4987000;28;20582;-57
2023/02/17 07:03:20;;;;;;;8.70;4.93;;;7.80;94.40;;;;;;4982503;28;20058;-59
2023/02/17 07:05:47;;;;;;;8.00;5.00;;;7.80;94.40;;;;;;4985249;28;20095;-58
2023/02/17 07:08:13;;;;;;;9.65;5.18;;;7.80;94.40;;;;;;4992265;28;20125;-59
2023/02/17 07:10:40;;;;;;;8.50;4.95;;;7.80;94.40;;;;;;4977860;28;20046;-59
2023/02/17 07:13:07;;;;;;;10.13;5.20;;;7.80;94.40;;;;;;4986981;28;20048;-58
2023/02/17 07:15:34;;;;;;;8.70;4.97;;;7.80;94.40;;;;;;4977364;28;20050;-58
2023/02/17 07:18:01;;;;;;;7.75;4.57;;;7.90;94.40;;;;;;4984775;28;20063;-58
2023/02/17 07:20:31;;;;;;;10.00;4.88;;;7.90;94.40;;;;;;4985194;28;20405;-63
2023/02/17 07:22:59;;;;;;;9.63;4.90;;;7.90;94.40;;;;;;4973537;28;20075;-64
2023/02/17 07:25:26;;;;;;;7.90;4.68;;;7.90;94.40;;;;;;4982611;28;20065;-60
2023/02/17 07:27:52;;;;;;;8.60;4.45;;;7.90;94.40;;;;;;4987140;28;20043;-59
2023/02/17 07:30:19;;;;;;;7.63;4.05;;;8.00;94.40;;;;;;4985637;28;20366;-60
2023/02/17 07:32:46;;;;;;;9.55;4.45;;;8.00;94.40;;;;;;4992091;28;20485;-60
2023/02/17 07:35:13;;;;;;;7.78;4.40;;;8.00;94.40;;;;;;4988144;28;20047;-60
2023/02/17 07:37:41;;;;;;;7.70;4.32;;;8.00;94.40;;;;;;4984875;28;20050;-59
2023/02/17 07:40:09;;;;;;;9.00;4.95;;;8.00;94.40;;;;;;4984548;28;20050;-60
2023/02/17 07:42:36;;;;;;;8.15;4.05;;;8.10;94.40;;;;;;4984847;28;20058;-58
2023/02/17 07:45:03;;;;;;;7.30;4.07;;;8.10;94.40;;;;;;4981303;28;20149;-60
2023/02/17 07:47:31;;;;;;;7.35;3.88;;;8.10;94.40;;;;;;4987281;28;20052;-59
2023/02/17 07:49:58;;;;;;;5.78;4.00;;;8.10;94.30;;;;;;4983985;28;20046;-58
2023/02/17 07:52:25;;;;;;;8.25;4.65;;;8.10;94.40;;;;;;4983679;28;20049;-66
2023/02/17 07:54:53;;;;;;;6.50;3.90;;;8.20;94.30;;;;;;4988736;28;20137;-66
2023/02/17 07:57:20;;;;;;;7.57;3.88;;;8.20;94.40;;;;;;4981059;28;20059;-65
2023/02/17 07:59:47;;;;;;;7.57;4.20;;;8.20;94.30;;;;;;4983295;28;20128;-66
2023/02/17 08:02:14;;;;;;;6.53;3.80;;;8.20;94.30;;;;;;4967684;28;20059;-66
2023/02/17 08:04:40;;;;;;;5.97;3.55;;;8.20;94.30;;;;;;4980538;28;20046;-66
2023/02/17 08:07:07;;;;;;;7.60;3.55;;;8.20;94.20;;;;;;4986152;28;20057;-66
2023/02/17 08:15:08;;;;;;;5.57;3.17;;;8.30;94.30;;;;;;4971285;28;20046;-66
2023/02/17 08:17:35;;;;;;;5.97;3.30;;;8.40;94.30;;;;;;4987460;28;20054;-66
2023/02/17 08:20:05;;;;;;;6.70;3.13;;;8.40;94.30;;;;;;4988063;28;20069;-65
2023/02/17 08:22:32;;;;;;;5.40;3.28;;;8.40;94.20;;;;;;4992975;28;20103;-66
2023/02/17 08:24:59;;;;;;;4.88;3.08;;;8.40;94.20;;;;;;4988996;28;20130;-66
2023/02/17 08:27:27;;;;;;;5.72;3.50;;;8.50;94.20;;;;;;4989010;28;20040;-66
2023/02/17 08:29:54;;;;;;;5.32;3.03;;;8.40;94.00;;;;;;4987635;28;20856;-65
2023/02/17 08:32:21;;;;;;;6.95;3.20;;;8.50;94.10;;;;;;4979796;28;20496;-67
2023/02/17 08:34:48;;;;;;;6.07;3.20;;;8.60;94.00;;;;;;4992287;28;20484;-66
2023/02/17 08:37:15;;;;;;;5.28;3.00;;;8.50;93.90;;;;;;4993925;28;20047;-65
2023/02/17 08:39:42;;;;;;;6.03;3.30;;;8.60;93.90;;;;;;4964625;28;20050;-65
2023/02/17 08:42:10;;;;;;;4.93;2.80;;;8.60;93.90;;;;;;4983276;28;20043;-66
2023/02/17 08:44:38;;;;;;;5.95;3.10;;;8.60;93.80;;;;;;4982391;28;20060;-66
2023/02/17 08:47:06;;;;;;;5.88;3.20;;;8.70;93.80;;;;;;4990464;28;20049;-58
2023/02/17 08:49:34;;;;;;;4.68;2.70;;;8.70;93.60;;;;;;4981526;28;20522;-58
2023/02/17 08:52:02;;;;;;;5.72;2.70;;;8.70;93.60;;;;;;4982471;28;20081;-59
2023/02/17 08:54:28;;;;;;;5.68;3.20;;;8.70;93.50;;;;;;4989506;28;20065;-58
2023/02/17 08:56:57;;;;;;;5.20;2.83;;;8.80;93.50;;;;;;4986512;28;20061;-58
2023/02/17 08:59:24;;;;;;;6.65;2.88;;;8.80;93.50;;;;;;4985791;28;20084;-59
2023/02/17 09:01:52;;;;;;;6.88;3.15;;;8.80;93.40;;;;;;4989479;28;20063;-60
2023/02/17 09:04:19;;;;;;;5.97;2.92;;;8.80;93.30;;;;;;4991633;28;20930;-58
2023/02/17 09:06:48;;;;;;;5.65;3.38;;;8.80;93.40;;;;;;4983554;28;20061;-59
2023/02/17 09:09:17;;;;;;;7.00;3.38;;;8.90;93.30;;;;;;4986052;28;20074;-59
2023/02/17 09:11:44;;;;;;;5.07;2.72;;;8.90;93.10;;;;;;4987901;28;20058;-59
2023/02/17 09:14:11;;;;;;;5.22;3.00;;;8.80;93.10;;;;;;4978177;28;20050;-58
2023/02/17 09:16:38;;;;;;;6.93;3.05;;;8.90;93.20;;;;;;4999917;28;20401;-58
2023/02/17 09:19:07;;;;;;;4.95;2.80;;;8.90;93.20;;;;;;4986456;28;20050;-58
2023/02/17 09:21:34;;;;;;;5.32;2.92;;;8.90;93.20;;;;;;4988066;28;20061;-63
2023/02/17 09:24:01;;;;;;;5.30;2.92;;;8.90;93.30;;;;;;4982458;28;20114;-63
2023/02/17 09:26:28;;;;;;;5.32;2.90;;;8.90;93.30;;;;;;4989710;28;20425;-62
2023/02/17 09:28:56;;;;;;;4.65;2.60;;;8.90;93.40;;;;;;4995649;28;20046;-62
2023/02/17 09:31:24;;;;;;;6.00;2.85;;;8.90;93.40;;;;;;4995202;28;20057;-62
2023/02/17 09:33:51;;;;;;;5.40;2.95;;;8.90;93.50;;;;;;4991574;28;20057;-62
2023/02/17 09:36:22;;;;;;;4.93;2.83;;;8.90;93.50;;;;;;4985266;28;20096;-63
2023/02/17 09:38:49;;;;;;;4.65;2.50;;;9.00;93.60;;;;;;4986638;28;20046;-61
2023/02/17 09:41:19;;;;;;;5.05;2.78;;;8.90;93.60;;;;;;4991097;28;20046;-63
2023/02/17 09:43:49;;;;;;;5.07;2.75;;;8.90;93.70;;;;;;4986591;28;20137;-62
2023/02/17 09:46:24;;;;;;;5.82;2.80;;;8.90;93.70;;;;;;4977918;28;20050;-62
2023/02/17 09:48:55;;;;;;;4.72;2.70;;;9.00;93.80;;;;;;4984674;28;20607;-63
2023/02/17 09:51:30;;;;;;;5.95;2.95;;;9.00;93.80;;;;;;4979290;28;20050;-61
2023/02/17 09:54:04;;;;;;;5.72;3.33;;;9.00;93.80;;;;;;4985454;28;20100;-62
2023/02/17 09:56:34;;;;;;;4.97;2.70;;;9.00;93.90;;;;;;5018337;28;20059;-62
2023/02/17 09:59:07;;;;;;;6.18;3.17;;;9.10;93.90;;;;;;4981568;28;20500;-62
2023/02/17 10:01:35;;;;;;;6.38;2.97;;;9.10;93.90;;;;;;4986538;28;20085;-62
2023/02/17 10:04:07;;;;;;;5.78;2.80;;;9.10;93.90;;;;;;4980164;28;20054;-66
2023/02/17 10:06:39;;;;;;;4.53;2.40;;;9.10;94.00;;;;;;4985867;28;20059;-64
2023/02/17 10:09:15;;;;;;;4.93;2.92;;;9.10;93.90;;;;;;4985782;28;20501;-63
2023/02/17 10:11:47;;;;;;;6.43;3.20;;;9.10;93.80;;;;;;4982211;28;20057;-61
2023/02/17 10:14:21;;;;;;;8.15;3.08;;;9.20;93.90;;;;;;4990133;28;20107;-64
2023/02/17 10:16:52;;;;;;;4.90;2.63;;;9.10;93.90;;;;;;4978678;28;20053;-63
2023/02/17 10:19:25;;;;;;;5.80;3.08;;;9.10;93.90;;;;;;4992569;28;20042;-62
2023/02/17 10:21:59;;;;;;;5.40;2.80;;;9.20;93.90;;;;;;4994666;28;20042;-62
2023/02/17 10:24:26;;;;;;;6.50;3.58;;;9.20;93.80;;;;;;4991691;28;20039;-62
2023/02/17 10:27:07;;;;;;;5.35;3.42;;;9.20;93.70;;;;;;4982344;28;20167;-63
2023/02/17 10:29:42;;;;;;;6.03;3.25;;;9.20;93.80;;;;;;4980921;28;20046;-61
2023/02/17 10:32:22;;;;;;;5.50;3.10;;;9.20;93.70;;;;;;4973539;28;20077;-62
2023/02/17 10:35:07;;;;;;;5.90;3.30;;;9.20;93.70;;;;;;5005916;28;20513;-61
2023/02/17 10:37:45;;;;;;;5.30;3.08;;;9.20;93.70;;;;;;4984899;28;20077;-61
2023/02/17 10:40:19;;;;;;;5.55;3.20;;;9.30;93.70;;;;;;4984785;28;20065;-61
2023/02/17 10:42:49;;;;;;;6.15;2.92;;;9.30;93.70;;;;;;4983456;28;20043;-61
2023/02/17 10:45:26;;;;;;;5.55;3.30;;;9.30;93.70;;;;;;4974396;28;20443;-61
2023/02/17 10:47:57;;;;;;;6.75;3.60;;;9.30;93.70;;;;;;4976130;28;20042;-62
2023/02/17 10:50:26;;;;;;;6.78;3.88;;;9.30;93.60;;;;;;4986980;28;20061;-61
2023/02/17 10:52:56;;;;;;;6.30;3.75;;;9.30;93.60;;;;;;4980796;28;20062;-61
2023/02/17 10:55:31;;;;;;;6.88;3.80;;;9.30;93.60;;;;;;4980677;28;20054;-68
2023/02/17 10:58:04;;;;;;;6.38;3.50;;;9.40;93.60;;;;;;4970545;28;20055;-69
2023/02/17 11:00:32;;;;;;;6.43;3.55;;;9.40;93.60;;;;;;4985688;28;20137;-58
2023/02/17 11:02:59;;;;;;;6.20;3.58;;;9.40;93.60;;;;;;4978813;28;20054;-58
2023/02/17 11:05:28;;;;;;;6.20;3.63;;;9.40;93.60;;;;;;4990080;28;20133;-58
2023/02/17 11:08:00;;;;;;;6.13;3.47;;;9.40;93.60;;;;;;4985639;28;20172;-59
2023/02/17 11:10:31;;;;;;;7.00;4.00;;;9.50;93.70;;;;;;5010539;28;20059;-67
2023/02/17 11:12:58;;;;;;;7.03;3.83;;;9.50;93.60;;;;;;4988436;28;20056;-67
2023/02/17 11:15:29;;;;;;;6.72;3.53;;;9.50;93.60;;;;;;4973157;28;20058;-68
2023/02/17 11:18:01;;;;;;;6.70;3.92;;;9.50;93.60;;;;;;4975817;28;20075;-68
2023/02/17 11:20:34;;;;;;;7.05;3.65;;;9.50;93.50;;;;;;4978266;28;20476;-60
2023/02/17 11:23:09;;;;;;;6.28;3.30;;;9.60;93.40;;;;;;4992659;28;20050;-60
2023/02/17 11:25:37;;;;;;;4.55;2.92;;;9.60;93.30;;;;;;4986515;28;20058;-60
2023/02/17 11:28:07;;;;;;;6.07;3.55;;;9.60;93.30;;;;;;4989210;28;20046;-61
2023/02/17 11:30:35;;;;;;;6.30;3.47;;;9.60;93.30;;;;;;4990473;28;20416;-59
2023/02/17 11:33:12;;;;;;;6.03;3.63;;;9.70;93.30;;;;;;4987490;28;20459;-60
2023/02/17 11:35:50;;;;;;;7.40;3.55;;;9.70;93.20;;;;;;4991081;28;20042;-60
2023/02/17 11:38:24;;;;;;;6.10;3.28;;;9.70;93.30;;;;;;5018997;28;20059;-59
2023/02/17 11:40:57;;;;;;;6.55;3.42;;;9.70;93.30;;;;;;4982761;28;20042;-59
2023/02/17 11:43:28;;;;;;;6.05;3.17;;;9.70;93.30;;;;;;4985326;28;20053;-59
2023/02/17 11:46:22;;;;;;;7.10;3.83;;;9.70;93.20;;;;;;4994052;28;20118;-59
2023/02/17 11:49:15;;;;;;;6.20;3.40;;;9.70;93.10;;;;;;4994386;28;20034;-61
2023/02/17 11:51:53;;;;;;;6.90;3.90;;;9.80;93.10;;;;;;4986692;28;20073;-60
2023/02/17 11:54:28;;;;;;;6.60;3.47;;;9.90;92.90;;;;;;4992532;28;20069;-60
2023/02/17 11:57:03;;;;;;;6.93;3.42;;;9.90;92.90;;;;;;4988824;28;20520;-60
2023/02/17 11:59:38;;;;;;;6.15;3.25;;;9.90;92.80;;;;;;4982213;28;20051;-59
2023/02/17 12:02:23;;;;;;;5.93;3.47;;;10.00;92.80;;;;;;4991914;28;20058;-59
2023/02/17 12:05:05;;;;;;;6.75;3.47;;;10.00;92.80;;;;;;4979539;28;20050;-59
2023/02/17 12:07:41;;;;;;;6.78;3.30;;;10.00;92.90;;;;;;4991551;28;20058;-60
2023/02/17 12:10:19;;;;;;;5.28;3.15;;;10.00;92.80;;;;;;4990288;28;20076;-59
2023/02/17 12:13:02;;;;;;;5.30;3.15;;;10.00;92.70;;;;;;4968938;28;20046;-60
2023/02/17 12:15:53;;;;;;;6.40;3.50;;;10.10;92.70;;;;;;4977490;28;20070;-60
2023/02/17 12:18:41;;;;;;;6.28;3.40;;;10.00;92.70;;;;;;4984842;28;20546;-59
2023/02/17 12:21:14;;;;;;;7.65;3.35;;;10.00;92.70;;;;;;4989112;28;20505;-59
2023/02/17 12:24:00;;;;;;;6.78;3.25;;;10.10;92.60;;;;;;4987838;28;20504;-59
2023/02/17 12:26:36;;;;;;;7.57;3.47;;;10.10;92.60;;;;;;4985846;28;20439;-61
2023/02/17 12:29:23;;;;;;;6.90;3.35;;;10.10;92.50;;;;;;4988827;28;20050;-60
2023/02/17 12:32:18;;;;;;;8.07;3.45;;;10.10;92.40;;;;;;5069348;28;20049;-60
2023/02/17 12:34:51;;;;;;;4.82;2.83;;;10.20;92.50;;;;;;5023453;28;20046;-61
2023/02/17 12:37:21;;;;;;;6.65;3.00;;;10.20;92.50;;;;;;4989706;28;20050;-61
2023/02/17 12:39:53;;;;;;;5.43;3.13;;;10.20;92.50;;;;;;4989288;28;20050;-61
2023/02/17 12:42:25;;;;;;;4.32;2.40;;;10.20;92.40;;;;;;4989025;28;20048;-61
2023/02/17 12:44:56;;;;;;;4.38;2.60;;;10.30;92.30;;;;;;4982406;28;20137;-61
2023/02/17 12:47:28;;;;;;;4.57;2.50;;;10.30;92.30;;;;;;4987802;28;20050;-62
2023/02/17 12:50:00;;;;;;;3.55;2.30;;;10.30;92.30;;;;;;4981857;28;20137;-60
2023/02/17 12:52:41;;;;;;;4.90;2.55;;;10.30;92.30;;;;;;4988336;28;20051;-60
2023/02/17 12:55:13;;;;;;;3.97;2.22;;;10.40;92.10;;;;;;4989390;28;20043;-62
2023/02/17 12:57:52;;;;;;;4.90;2.50;;;10.30;92.00;;;;;;5067852;28;20048;-61
2023/02/17 13:00:22;;;;;;;5.40;2.30;;;10.40;92.10;;;;;;5067512;28;20064;-61
2023/02/17 13:02:49;;;;;;;4.10;2.00;;;10.40;92.20;;;;;;4976250;28;20051;-62
2023/02/17 13:05:24;;;;;;;3.80;1.90;;;10.40;92.10;;;;;;4986965;28;20061;-61
2023/02/17 13:07:56;;;;;;;3.53;2.17;;;10.40;92.00;;;;;;4987566;28;20057;-61
2023/02/17 13:10:34;;;;;;;4.25;2.10;;;10.40;92.00;;;;;;4986580;28;20055;-60